sensor_id;sensor_type;location;lat;lon;timestamp;temperature;humidity
3334;DHT22;1679;50.392;8.008;2022-08-21T00:02:19;15.80;99.90
3334;DHT22;1679;50.392;8.008;2022-08-21T00:04:45;15.80;99.90
3334;DHT22;1679;50.392;8.008;2022-08-21T00:07:12;15.80;99.90
3334;DHT22;1679;50.392;8.008;2022-08-21T00:09:38;15.80;99.90
3334;DHT22;1679;50.392;8.008;2022-08-21T00:12:05;15.80;99.90
3334;DHT22;1679;50.392;8.008;2022-08-21T00:14:31;15.80;99.90
3334;DHT22;1679;50.392;8.008;2022-08-21T00:16:57;15.80;99.90
3334;DHT22;1679;50.392;8.008;2022-08-21T00:19:24;15.90;99.90
3334;DHT22;1679;50.392;8.008;2022-08-21T00:21:53;15.90;99.90
3334;DHT22;1679;50.392;8.008;2022-08-21T00:24:21;15.90;99.90
3334;DHT22;1679;50.392;8.008;2022-08-21T00:26:48;15.90;99.90
3334;DHT22;1679;50.392;8.008;2022-08-21T00:29:14;15.90;99.90
3334;DHT22;1679;50.392;8.008;2022-08-21T00:31:41;15.80;99.90
3334;DHT22;1679;50.392;8.008;2022-08-21T00:34:07;15.60;99.90
3334;DHT22;1679;50.392;8.008;2022-08-21T00:36:33;15.60;99.90
3334;DHT22;1679;50.392;8.008;2022-08-21T00:38:59;15.50;99.90
3334;DHT22;1679;50.392;8.008;2022-08-21T00:41:26;15.50;99.90
3334;DHT22;1679;50.392;8.008;2022-08-21T00:43:55;15.40;99.90
3334;DHT22;1679;50.392;8.008;2022-08-21T00:46:21;15.50;99.90
3334;DHT22;1679;50.392;8.008;2022-08-21T00:48:46;15.30;99.90
3334;DHT22;1679;50.392;8.008;2022-08-21T00:51:20;15.20;99.90
3334;DHT22;1679;50.392;8.008;2022-08-21T00:53:51;15.20;99.90
3334;DHT22;1679;50.392;8.008;2022-08-21T00:56:19;15.20;99.90
3334;DHT22;1679;50.392;8.008;2022-08-21T00:58:47;15.10;99.90
3334;DHT22;1679;50.392;8.008;2022-08-21T01:01:13;15.00;99.90
3334;DHT22;1679;50.392;8.008;2022-08-21T01:03:40;15.00;99.90
3334;DHT22;1679;50.392;8.008;2022-08-21T01:06:07;15.00;99.90
3334;DHT22;1679;50.392;8.008;2022-08-21T01:08:34;15.00;99.90
3334;DHT22;1679;50.392;8.008;2022-08-21T01:11:01;14.90;99.90
3334;DHT22;1679;50.392;8.008;2022-08-21T01:13:29;14.90;99.90
3334;DHT22;1679;50.392;8.008;2022-08-21T01:15:57;14.90;99.90
3334;DHT22;1679;50.392;8.008;2022-08-21T01:18:26;14.90;99.90
3334;DHT22;1679;50.392;8.008;2022-08-21T01:21:04;14.90;99.90
3334;DHT22;1679;50.392;8.008;2022-08-21T01:23:31;14.90;99.90
3334;DHT22;1679;50.392;8.008;2022-08-21T01:25:57;14.80;99.90
3334;DHT22;1679;50.392;8.008;2022-08-21T01:28:24;14.70;99.90
3334;DHT22;1679;50.392;8.008;2022-08-21T01:30:51;14.70;99.90
3334;DHT22;1679;50.392;8.008;2022-08-21T01:33:24;14.60;99.90
3334;DHT22;1679;50.392;8.008;2022-08-21T01:35:50;14.50;99.90
3334;DHT22;1679;50.392;8.008;2022-08-21T01:38:17;14.50;99.90
3334;DHT22;1679;50.392;8.008;2022-08-21T01:40:43;14.40;99.90
3334;DHT22;1679;50.392;8.008;2022-08-21T01:43:09;14.40;99.90
3334;DHT22;1679;50.392;8.008;2022-08-21T01:45:35;14.40;99.90
3334;DHT22;1679;50.392;8.008;2022-08-21T01:48:01;14.40;99.90
3334;DHT22;1679;50.392;8.008;2022-08-21T01:50:29;14.40;99.90
3334;DHT22;1679;50.392;8.008;2022-08-21T01:52:54;14.40;99.90
3334;DHT22;1679;50.392;8.008;2022-08-21T01:55:23;14.40;99.90
3334;DHT22;1679;50.392;8.008;2022-08-21T01:57:49;14.40;99.90
3334;DHT22;1679;50.392;8.008;2022-08-21T02:00:17;14.40;99.90
3334;DHT22;1679;50.392;8.008;2022-08-21T02:02:43;14.40;99.90
3334;DHT22;1679;50.392;8.008;2022-08-21T02:05:10;14.30;99.90
3334;DHT22;1679;50.392;8.008;2022-08-21T02:07:39;14.40;99.90
3334;DHT22;1679;50.392;8.008;2022-08-21T02:10:09;14.30;99.90
3334;DHT22;1679;50.392;8.008;2022-08-21T02:12:36;14.30;99.90
3334;DHT22;1679;50.392;8.008;2022-08-21T02:15:04;14.30;99.90
3334;DHT22;1679;50.392;8.008;2022-08-21T02:17:43;14.30;99.90
3334;DHT22;1679;50.392;8.008;2022-08-21T02:20:14;14.30;99.90
3334;DHT22;1679;50.392;8.008;2022-08-21T02:22:40;14.20;99.90
3334;DHT22;1679;50.392;8.008;2022-08-21T02:25:06;14.20;99.90
3334;DHT22;1679;50.392;8.008;2022-08-21T02:27:38;14.10;99.90
3334;DHT22;1679;50.392;8.008;2022-08-21T02:30:04;14.20;99.90
3334;DHT22;1679;50.392;8.008;2022-08-21T02:32:30;14.20;99.90
3334;DHT22;1679;50.392;8.008;2022-08-21T02:34:57;14.20;99.90
3334;DHT22;1679;50.392;8.008;2022-08-21T02:37:24;14.20;99.90
3334;DHT22;1679;50.392;8.008;2022-08-21T02:39:50;14.10;99.90
3334;DHT22;1679;50.392;8.008;2022-08-21T02:42:16;14.00;99.90
3334;DHT22;1679;50.392;8.008;2022-08-21T02:44:41;14.00;99.90
3334;DHT22;1679;50.392;8.008;2022-08-21T02:47:08;13.90;99.90
3334;DHT22;1679;50.392;8.008;2022-08-21T02:49:33;13.90;99.90
3334;DHT22;1679;50.392;8.008;2022-08-21T02:51:59;13.90;99.90
3334;DHT22;1679;50.392;8.008;2022-08-21T02:54:26;13.80;99.90
3334;DHT22;1679;50.392;8.008;2022-08-21T02:56:51;13.80;99.90
3334;DHT22;1679;50.392;8.008;2022-08-21T02:59:17;13.80;99.90
3334;DHT22;1679;50.392;8.008;2022-08-21T03:01:44;13.80;99.90
3334;DHT22;1679;50.392;8.008;2022-08-21T03:04:10;13.80;99.90
3334;DHT22;1679;50.392;8.008;2022-08-21T03:06:35;13.80;99.90
3334;DHT22;1679;50.392;8.008;2022-08-21T03:09:03;13.80;99.90
3334;DHT22;1679;50.392;8.008;2022-08-21T03:11:28;13.70;99.90
3334;DHT22;1679;50.392;8.008;2022-08-21T03:13:54;13.80;99.90
3334;DHT22;1679;50.392;8.008;2022-08-21T03:16:20;13.70;99.90
3334;DHT22;1679;50.392;8.008;2022-08-21T03:18:48;13.70;99.90
3334;DHT22;1679;50.392;8.008;2022-08-21T03:21:13;13.80;99.90
3334;DHT22;1679;50.392;8.008;2022-08-21T03:23:39;13.70;99.90
3334;DHT22;1679;50.392;8.008;2022-08-21T03:26:07;13.70;99.90
3334;DHT22;1679;50.392;8.008;2022-08-21T03:28:33;13.60;99.90
3334;DHT22;1679;50.392;8.008;2022-08-21T03:30:58;13.60;99.90
3334;DHT22;1679;50.392;8.008;2022-08-21T03:33:24;13.60;99.90
3334;DHT22;1679;50.392;8.008;2022-08-21T03:36:02;13.60;99.90
3334;DHT22;1679;50.392;8.008;2022-08-21T03:38:29;13.70;99.90
3334;DHT22;1679;50.392;8.008;2022-08-21T03:40:56;13.60;99.90
3334;DHT22;1679;50.392;8.008;2022-08-21T03:43:23;13.50;99.90
3334;DHT22;1679;50.392;8.008;2022-08-21T03:45:49;13.50;99.90
3334;DHT22;1679;50.392;8.008;2022-08-21T03:48:16;13.40;99.90
3334;DHT22;1679;50.392;8.008;2022-08-21T03:50:43;13.40;99.90
3334;DHT22;1679;50.392;8.008;2022-08-21T03:53:13;13.40;99.90
3334;DHT22;1679;50.392;8.008;2022-08-21T03:55:39;13.40;99.90
3334;DHT22;1679;50.392;8.008;2022-08-21T03:58:07;13.40;99.90
3334;DHT22;1679;50.392;8.008;2022-08-21T04:00:33;13.30;99.90
3334;DHT22;1679;50.392;8.008;2022-08-21T04:02:58;13.20;99.90
3334;DHT22;1679;50.392;8.008;2022-08-21T04:05:24;13.20;99.90
3334;DHT22;1679;50.392;8.008;2022-08-21T04:08:13;13.10;99.90
3334;DHT22;1679;50.392;8.008;2022-08-21T04:10:43;13.00;99.90
3334;DHT22;1679;50.392;8.008;2022-08-21T04:13:09;13.10;99.90
3334;DHT22;1679;50.392;8.008;2022-08-21T04:15:35;13.10;99.90
3334;DHT22;1679;50.392;8.008;2022-08-21T04:18:03;13.10;99.90
3334;DHT22;1679;50.392;8.008;2022-08-21T04:20:29;13.00;99.90
3334;DHT22;1679;50.392;8.008;2022-08-21T04:22:54;13.10;99.90
3334;DHT22;1679;50.392;8.008;2022-08-21T04:25:22;13.10;99.90
3334;DHT22;1679;50.392;8.008;2022-08-21T04:27:48;13.00;99.90
3334;DHT22;1679;50.392;8.008;2022-08-21T04:30:15;13.10;99.90
3334;DHT22;1679;50.392;8.008;2022-08-21T04:32:46;13.00;99.90
3334;DHT22;1679;50.392;8.008;2022-08-21T04:35:13;13.00;99.90
3334;DHT22;1679;50.392;8.008;2022-08-21T04:37:40;12.90;99.90
3334;DHT22;1679;50.392;8.008;2022-08-21T04:40:07;12.90;99.90
3334;DHT22;1679;50.392;8.008;2022-08-21T04:42:51;13.00;99.90
3334;DHT22;1679;50.392;8.008;2022-08-21T04:45:24;13.00;99.90
3334;DHT22;1679;50.392;8.008;2022-08-21T04:47:55;13.00;99.90
3334;DHT22;1679;50.392;8.008;2022-08-21T04:50:24;13.10;99.90
3334;DHT22;1679;50.392;8.008;2022-08-21T04:52:52;13.10;99.90
3334;DHT22;1679;50.392;8.008;2022-08-21T04:55:19;13.00;99.90
3334;DHT22;1679;50.392;8.008;2022-08-21T04:57:45;13.00;99.90
3334;DHT22;1679;50.392;8.008;2022-08-21T05:00:12;13.00;99.90
3334;DHT22;1679;50.392;8.008;2022-08-21T05:02:40;13.10;99.90
3334;DHT22;1679;50.392;8.008;2022-08-21T05:05:06;13.20;99.90
3334;DHT22;1679;50.392;8.008;2022-08-21T05:07:32;13.20;99.90
3334;DHT22;1679;50.392;8.008;2022-08-21T05:10:00;13.30;99.90
3334;DHT22;1679;50.392;8.008;2022-08-21T05:12:26;13.40;99.90
3334;DHT22;1679;50.392;8.008;2022-08-21T05:14:52;13.50;99.90
3334;DHT22;1679;50.392;8.008;2022-08-21T05:17:18;13.60;99.90
3334;DHT22;1679;50.392;8.008;2022-08-21T05:19:43;13.70;99.90
3334;DHT22;1679;50.392;8.008;2022-08-21T05:22:10;13.70;99.90
3334;DHT22;1679;50.392;8.008;2022-08-21T05:24:36;13.70;99.90
3334;DHT22;1679;50.392;8.008;2022-08-21T05:27:03;13.70;99.90
3334;DHT22;1679;50.392;8.008;2022-08-21T05:29:28;13.70;99.90
3334;DHT22;1679;50.392;8.008;2022-08-21T05:31:55;13.70;99.90
3334;DHT22;1679;50.392;8.008;2022-08-21T05:34:22;13.70;99.90
3334;DHT22;1679;50.392;8.008;2022-08-21T05:36:50;13.80;99.90
3334;DHT22;1679;50.392;8.008;2022-08-21T05:39:16;13.90;99.90
3334;DHT22;1679;50.392;8.008;2022-08-21T05:41:41;14.00;99.90
3334;DHT22;1679;50.392;8.008;2022-08-21T05:44:07;14.00;99.90
3334;DHT22;1679;50.392;8.008;2022-08-21T05:46:33;14.10;99.90
3334;DHT22;1679;50.392;8.008;2022-08-21T05:48:58;14.10;99.90
3334;DHT22;1679;50.392;8.008;2022-08-21T05:51:24;14.10;99.90
3334;DHT22;1679;50.392;8.008;2022-08-21T05:53:50;14.10;99.90
3334;DHT22;1679;50.392;8.008;2022-08-21T05:56:16;14.20;99.90
3334;DHT22;1679;50.392;8.008;2022-08-21T05:58:42;14.20;99.90
3334;DHT22;1679;50.392;8.008;2022-08-21T06:01:08;14.30;99.90
3334;DHT22;1679;50.392;8.008;2022-08-21T06:03:40;14.40;99.90
3334;DHT22;1679;50.392;8.008;2022-08-21T06:06:06;14.50;99.90
3334;DHT22;1679;50.392;8.008;2022-08-21T06:08:32;14.60;99.90
3334;DHT22;1679;50.392;8.008;2022-08-21T06:11:01;14.60;99.90
3334;DHT22;1679;50.392;8.008;2022-08-21T06:13:27;14.70;99.90
3334;DHT22;1679;50.392;8.008;2022-08-21T06:18:31;14.90;99.90
3334;DHT22;1679;50.392;8.008;2022-08-21T06:20:57;14.90;99.90
3334;DHT22;1679;50.392;8.008;2022-08-21T06:23:23;15.00;99.90
3334;DHT22;1679;50.392;8.008;2022-08-21T06:25:50;15.10;99.90
3334;DHT22;1679;50.392;8.008;2022-08-21T06:28:15;15.20;99.90
3334;DHT22;1679;50.392;8.008;2022-08-21T06:30:42;15.30;99.90
3334;DHT22;1679;50.392;8.008;2022-08-21T06:33:08;15.40;99.90
3334;DHT22;1679;50.392;8.008;2022-08-21T06:35:34;15.40;99.90
3334;DHT22;1679;50.392;8.008;2022-08-21T06:38:00;15.50;99.90
3334;DHT22;1679;50.392;8.008;2022-08-21T06:40:27;15.50;99.90
3334;DHT22;1679;50.392;8.008;2022-08-21T06:42:53;15.60;99.90
3334;DHT22;1679;50.392;8.008;2022-08-21T06:45:18;15.70;99.90
3334;DHT22;1679;50.392;8.008;2022-08-21T06:47:45;15.90;99.90
3334;DHT22;1679;50.392;8.008;2022-08-21T06:50:11;16.00;99.90
3334;DHT22;1679;50.392;8.008;2022-08-21T06:52:39;16.20;99.90
3334;DHT22;1679;50.392;8.008;2022-08-21T06:55:08;16.30;99.90
3334;DHT22;1679;50.392;8.008;2022-08-21T06:57:34;16.50;99.90
3334;DHT22;1679;50.392;8.008;2022-08-21T07:00:02;16.60;99.90
3334;DHT22;1679;50.392;8.008;2022-08-21T07:02:28;16.80;99.90
3334;DHT22;1679;50.392;8.008;2022-08-21T07:04:53;16.90;99.90
3334;DHT22;1679;50.392;8.008;2022-08-21T07:07:19;17.00;99.90
3334;DHT22;1679;50.392;8.008;2022-08-21T07:09:45;17.20;99.90
3334;DHT22;1679;50.392;8.008;2022-08-21T07:12:12;17.30;99.90
3334;DHT22;1679;50.392;8.008;2022-08-21T07:14:38;17.50;99.90
3334;DHT22;1679;50.392;8.008;2022-08-21T07:17:03;17.60;99.90
3334;DHT22;1679;50.392;8.008;2022-08-21T07:19:29;17.80;99.90
3334;DHT22;1679;50.392;8.008;2022-08-21T07:21:58;18.20;99.90
3334;DHT22;1679;50.392;8.008;2022-08-21T07:24:26;18.60;99.90
3334;DHT22;1679;50.392;8.008;2022-08-21T07:26:51;19.00;99.90
3334;DHT22;1679;50.392;8.008;2022-08-21T07:29:18;19.50;99.90
3334;DHT22;1679;50.392;8.008;2022-08-21T07:31:44;20.00;99.90
3334;DHT22;1679;50.392;8.008;2022-08-21T07:34:13;20.40;99.90
3334;DHT22;1679;50.392;8.008;2022-08-21T07:36:38;21.00;99.90
3334;DHT22;1679;50.392;8.008;2022-08-21T07:39:04;21.60;99.90
3334;DHT22;1679;50.392;8.008;2022-08-21T07:41:29;22.20;99.90
3334;DHT22;1679;50.392;8.008;2022-08-21T07:43:59;22.60;99.90
3334;DHT22;1679;50.392;8.008;2022-08-21T07:46:25;22.80;99.90
3334;DHT22;1679;50.392;8.008;2022-08-21T07:48:52;23.30;99.90
3334;DHT22;1679;50.392;8.008;2022-08-21T07:51:19;23.50;99.90
3334;DHT22;1679;50.392;8.008;2022-08-21T07:53:50;23.60;99.90
3334;DHT22;1679;50.392;8.008;2022-08-21T07:56:17;24.10;99.90
3334;DHT22;1679;50.392;8.008;2022-08-21T07:58:43;24.20;99.90
3334;DHT22;1679;50.392;8.008;2022-08-21T08:01:08;24.10;99.90
3334;DHT22;1679;50.392;8.008;2022-08-21T08:03:34;24.20;99.90
3334;DHT22;1679;50.392;8.008;2022-08-21T08:06:01;24.50;99.90
3334;DHT22;1679;50.392;8.008;2022-08-21T08:08:30;24.80;99.90
3334;DHT22;1679;50.392;8.008;2022-08-21T08:10:56;25.20;99.90
3334;DHT22;1679;50.392;8.008;2022-08-21T08:13:22;25.70;99.90
3334;DHT22;1679;50.392;8.008;2022-08-21T08:15:48;25.70;99.90
3334;DHT22;1679;50.392;8.008;2022-08-21T08:18:14;25.90;99.90
3334;DHT22;1679;50.392;8.008;2022-08-21T08:20:40;26.00;99.90
3334;DHT22;1679;50.392;8.008;2022-08-21T08:23:07;26.10;99.90
3334;DHT22;1679;50.392;8.008;2022-08-21T08:25:32;26.10;99.90
3334;DHT22;1679;50.392;8.008;2022-08-21T08:27:58;26.30;99.90
3334;DHT22;1679;50.392;8.008;2022-08-21T08:30:23;26.30;99.90
3334;DHT22;1679;50.392;8.008;2022-08-21T08:32:49;26.60;99.90
3334;DHT22;1679;50.392;8.008;2022-08-21T08:35:16;26.80;99.90
3334;DHT22;1679;50.392;8.008;2022-08-21T08:37:43;26.80;99.90
3334;DHT22;1679;50.392;8.008;2022-08-21T08:40:14;26.80;99.90
3334;DHT22;1679;50.392;8.008;2022-08-21T08:42:40;26.90;99.90
3334;DHT22;1679;50.392;8.008;2022-08-21T08:45:16;27.00;99.90
3334;DHT22;1679;50.392;8.008;2022-08-21T08:47:49;27.00;99.90
3334;DHT22;1679;50.392;8.008;2022-08-21T08:50:23;27.00;99.90
3334;DHT22;1679;50.392;8.008;2022-08-21T08:53:04;27.20;99.90
3334;DHT22;1679;50.392;8.008;2022-08-21T08:55:36;27.20;99.90
3334;DHT22;1679;50.392;8.008;2022-08-21T08:58:03;27.40;99.90
3334;DHT22;1679;50.392;8.008;2022-08-21T09:00:31;27.10;99.90
3334;DHT22;1679;50.392;8.008;2022-08-21T09:02:59;27.30;99.90
3334;DHT22;1679;50.392;8.008;2022-08-21T09:05:44;27.70;99.90
3334;DHT22;1679;50.392;8.008;2022-08-21T09:08:47;28.00;99.90
3334;DHT22;1679;50.392;8.008;2022-08-21T09:11:41;28.50;98.80
3334;DHT22;1679;50.392;8.008;2022-08-21T09:14:30;28.80;98.70
3334;DHT22;1679;50.392;8.008;2022-08-21T09:17:07;28.50;98.00
3334;DHT22;1679;50.392;8.008;2022-08-21T09:19:42;28.20;98.30
3334;DHT22;1679;50.392;8.008;2022-08-21T09:22:33;28.30;97.90
3334;DHT22;1679;50.392;8.008;2022-08-21T09:25:29;28.10;97.50
3334;DHT22;1679;50.392;8.008;2022-08-21T09:27:55;27.80;97.90
3334;DHT22;1679;50.392;8.008;2022-08-21T09:30:29;27.60;97.80
3334;DHT22;1679;50.392;8.008;2022-08-21T09:32:56;27.70;98.50
3334;DHT22;1679;50.392;8.008;2022-08-21T09:35:23;27.40;98.70
3334;DHT22;1679;50.392;8.008;2022-08-21T09:38:05;27.00;99.10
3334;DHT22;1679;50.392;8.008;2022-08-21T09:40:40;26.50;99.40
3334;DHT22;1679;50.392;8.008;2022-08-21T09:43:14;26.10;99.60
3334;DHT22;1679;50.392;8.008;2022-08-21T09:45:44;26.00;98.80
3334;DHT22;1679;50.392;8.008;2022-08-21T09:48:18;25.90;99.10
3334;DHT22;1679;50.392;8.008;2022-08-21T09:50:48;26.10;99.60
3334;DHT22;1679;50.392;8.008;2022-08-21T09:53:21;26.30;98.40
3334;DHT22;1679;50.392;8.008;2022-08-21T09:55:57;26.60;97.60
3334;DHT22;1679;50.392;8.008;2022-08-21T09:58:46;26.90;98.10
3334;DHT22;1679;50.392;8.008;2022-08-21T10:01:15;27.10;97.90
3334;DHT22;1679;50.392;8.008;2022-08-21T10:03:42;27.20;98.00
3334;DHT22;1679;50.392;8.008;2022-08-21T10:06:09;27.10;97.60
3334;DHT22;1679;50.392;8.008;2022-08-21T10:08:40;26.90;97.90
3334;DHT22;1679;50.392;8.008;2022-08-21T10:11:12;26.90;97.20
3334;DHT22;1679;50.392;8.008;2022-08-21T10:13:58;26.80;97.00
3334;DHT22;1679;50.392;8.008;2022-08-21T10:16:41;26.80;97.10
3334;DHT22;1679;50.392;8.008;2022-08-21T10:19:32;26.90;96.90
3334;DHT22;1679;50.392;8.008;2022-08-21T10:22:11;27.20;96.10
3334;DHT22;1679;50.392;8.008;2022-08-21T10:24:51;27.00;95.90
3334;DHT22;1679;50.392;8.008;2022-08-21T10:35:14;26.30;96.70
3334;DHT22;1679;50.392;8.008;2022-08-21T10:40:29;26.20;97.60
3334;DHT22;1679;50.392;8.008;2022-08-21T10:45:46;26.70;95.70
3334;DHT22;1679;50.392;8.008;2022-08-21T10:51:15;27.00;96.10
3334;DHT22;1679;50.392;8.008;2022-08-21T10:56:29;27.20;95.30
3334;DHT22;1679;50.392;8.008;2022-08-21T11:07:36;27.30;93.20
3334;DHT22;1679;50.392;8.008;2022-08-21T11:12:50;27.30;92.60
3334;DHT22;1679;50.392;8.008;2022-08-21T11:27:21;27.00;92.80
3334;DHT22;1679;50.392;8.008;2022-08-21T11:29:52;26.80;92.70
3334;DHT22;1679;50.392;8.008;2022-08-21T11:32:40;26.90;92.10
3334;DHT22;1679;50.392;8.008;2022-08-21T11:37:55;26.90;92.20
3334;DHT22;1679;50.392;8.008;2022-08-21T11:43:41;26.40;93.10
3334;DHT22;1679;50.392;8.008;2022-08-21T11:51:19;26.10;93.20
3334;DHT22;1679;50.392;8.008;2022-08-21T11:56:59;25.70;94.10
3334;DHT22;1679;50.392;8.008;2022-08-21T11:59:39;25.80;93.30
3334;DHT22;1679;50.392;8.008;2022-08-21T12:02:20;25.90;93.40
3334;DHT22;1679;50.392;8.008;2022-08-21T12:04:51;25.90;93.70
3334;DHT22;1679;50.392;8.008;2022-08-21T12:07:40;26.10;92.70
3334;DHT22;1679;50.392;8.008;2022-08-21T12:10:12;26.10;92.70
3334;DHT22;1679;50.392;8.008;2022-08-21T12:12:41;26.00;92.50
3334;DHT22;1679;50.392;8.008;2022-08-21T12:17:41;26.00;92.70
3334;DHT22;1679;50.392;8.008;2022-08-21T12:20:23;26.20;93.40
3334;DHT22;1679;50.392;8.008;2022-08-21T12:23:17;26.40;92.50
3334;DHT22;1679;50.392;8.008;2022-08-21T12:26:03;26.50;92.40
3334;DHT22;1679;50.392;8.008;2022-08-21T12:28:34;26.50;91.90
3334;DHT22;1679;50.392;8.008;2022-08-21T12:31:00;26.40;92.50
3334;DHT22;1679;50.392;8.008;2022-08-21T12:33:50;26.30;92.10
3334;DHT22;1679;50.392;8.008;2022-08-21T12:36:20;26.10;92.00
3334;DHT22;1679;50.392;8.008;2022-08-21T12:39:04;26.00;92.40
3334;DHT22;1679;50.392;8.008;2022-08-21T12:41:54;26.00;92.80
3334;DHT22;1679;50.392;8.008;2022-08-21T12:44:34;26.10;91.60
3334;DHT22;1679;50.392;8.008;2022-08-21T12:47:11;26.30;91.80
3334;DHT22;1679;50.392;8.008;2022-08-21T12:52:35;26.40;91.80
3334;DHT22;1679;50.392;8.008;2022-08-21T12:55:01;26.40;91.50
3334;DHT22;1679;50.392;8.008;2022-08-21T12:57:29;26.50;90.30
3334;DHT22;1679;50.392;8.008;2022-08-21T13:00:04;26.50;90.80
3334;DHT22;1679;50.392;8.008;2022-08-21T13:02:35;26.60;90.70
3334;DHT22;1679;50.392;8.008;2022-08-21T13:05:29;26.50;91.30
3334;DHT22;1679;50.392;8.008;2022-08-21T13:07:55;26.50;90.50
3334;DHT22;1679;50.392;8.008;2022-08-21T13:10:28;26.40;90.10
3334;DHT22;1679;50.392;8.008;2022-08-21T13:12:57;26.40;90.70
3334;DHT22;1679;50.392;8.008;2022-08-21T13:15:34;26.50;90.50
3334;DHT22;1679;50.392;8.008;2022-08-21T13:18:02;26.60;90.10
3334;DHT22;1679;50.392;8.008;2022-08-21T13:20:37;26.60;90.00
3334;DHT22;1679;50.392;8.008;2022-08-21T13:23:21;26.50;90.00
3334;DHT22;1679;50.392;8.008;2022-08-21T13:25:49;26.60;89.70
3334;DHT22;1679;50.392;8.008;2022-08-21T13:28:16;26.50;90.50
3334;DHT22;1679;50.392;8.008;2022-08-21T13:30:47;26.50;90.60
3334;DHT22;1679;50.392;8.008;2022-08-21T13:33:15;26.50;90.00
3334;DHT22;1679;50.392;8.008;2022-08-21T13:38:13;26.50;88.90
3334;DHT22;1679;50.392;8.008;2022-08-21T13:40:49;26.40;89.60
3334;DHT22;1679;50.392;8.008;2022-08-21T13:43:20;26.40;89.80
3334;DHT22;1679;50.392;8.008;2022-08-21T13:45:52;26.40;90.70
3334;DHT22;1679;50.392;8.008;2022-08-21T13:48:20;26.40;90.20
3334;DHT22;1679;50.392;8.008;2022-08-21T13:50:48;26.20;90.20
3334;DHT22;1679;50.392;8.008;2022-08-21T13:53:29;26.10;90.20
3334;DHT22;1679;50.392;8.008;2022-08-21T13:55:57;26.00;90.30
3334;DHT22;1679;50.392;8.008;2022-08-21T13:58:28;26.10;90.90
3334;DHT22;1679;50.392;8.008;2022-08-21T14:00:55;26.20;90.10
3334;DHT22;1679;50.392;8.008;2022-08-21T14:03:40;26.30;90.10
3334;DHT22;1679;50.392;8.008;2022-08-21T14:06:19;26.30;90.00
3334;DHT22;1679;50.392;8.008;2022-08-21T14:08:54;26.10;90.40
3334;DHT22;1679;50.392;8.008;2022-08-21T14:11:20;26.10;90.60
3334;DHT22;1679;50.392;8.008;2022-08-21T14:13:56;26.20;90.50
3334;DHT22;1679;50.392;8.008;2022-08-21T14:19:27;26.10;90.90
3334;DHT22;1679;50.392;8.008;2022-08-21T14:21:53;26.10;90.80
3334;DHT22;1679;50.392;8.008;2022-08-21T14:26:57;26.20;91.10
3334;DHT22;1679;50.392;8.008;2022-08-21T14:29:28;26.30;91.00
3334;DHT22;1679;50.392;8.008;2022-08-21T14:31:58;26.40;90.40
3334;DHT22;1679;50.392;8.008;2022-08-21T14:34:26;26.40;90.70
3334;DHT22;1679;50.392;8.008;2022-08-21T14:36:56;26.30;90.60
3334;DHT22;1679;50.392;8.008;2022-08-21T14:39:21;26.40;90.30
3334;DHT22;1679;50.392;8.008;2022-08-21T14:41:48;26.50;90.60
3334;DHT22;1679;50.392;8.008;2022-08-21T14:44:18;26.50;90.00
3334;DHT22;1679;50.392;8.008;2022-08-21T14:46:44;26.20;90.00
3334;DHT22;1679;50.392;8.008;2022-08-21T14:49:11;26.20;90.20
3334;DHT22;1679;50.392;8.008;2022-08-21T14:51:37;26.10;90.20
3334;DHT22;1679;50.392;8.008;2022-08-21T14:54:05;26.20;90.20
3334;DHT22;1679;50.392;8.008;2022-08-21T14:56:31;26.20;89.90
3334;DHT22;1679;50.392;8.008;2022-08-21T14:59:02;26.20;90.30
3334;DHT22;1679;50.392;8.008;2022-08-21T15:01:29;26.20;89.50
3334;DHT22;1679;50.392;8.008;2022-08-21T15:03:55;26.00;90.10
3334;DHT22;1679;50.392;8.008;2022-08-21T15:06:22;25.90;90.00
3334;DHT22;1679;50.392;8.008;2022-08-21T15:08:48;25.90;90.50
3334;DHT22;1679;50.392;8.008;2022-08-21T15:11:19;25.80;90.10
3334;DHT22;1679;50.392;8.008;2022-08-21T15:13:46;25.90;90.00
3334;DHT22;1679;50.392;8.008;2022-08-21T15:16:12;25.90;90.40
3334;DHT22;1679;50.392;8.008;2022-08-21T15:18:39;26.00;90.50
3334;DHT22;1679;50.392;8.008;2022-08-21T15:21:05;26.00;90.30
3334;DHT22;1679;50.392;8.008;2022-08-21T15:23:30;26.10;90.10
3334;DHT22;1679;50.392;8.008;2022-08-21T15:25:56;26.20;91.10
3334;DHT22;1679;50.392;8.008;2022-08-21T15:28:24;26.30;90.10
3334;DHT22;1679;50.392;8.008;2022-08-21T15:30:50;26.20;89.20
3334;DHT22;1679;50.392;8.008;2022-08-21T15:33:17;26.20;90.20
3334;DHT22;1679;50.392;8.008;2022-08-21T15:35:45;26.20;90.00
3334;DHT22;1679;50.392;8.008;2022-08-21T15:38:12;26.20;89.10
3334;DHT22;1679;50.392;8.008;2022-08-21T15:40:39;26.20;90.00
3334;DHT22;1679;50.392;8.008;2022-08-21T15:43:07;26.20;90.10
3334;DHT22;1679;50.392;8.008;2022-08-21T15:45:34;26.20;90.10
3334;DHT22;1679;50.392;8.008;2022-08-21T15:48:00;26.20;90.10
3334;DHT22;1679;50.392;8.008;2022-08-21T15:50:28;26.20;90.40
3334;DHT22;1679;50.392;8.008;2022-08-21T15:52:55;26.10;90.00
3334;DHT22;1679;50.392;8.008;2022-08-21T15:55:20;26.20;90.00
3334;DHT22;1679;50.392;8.008;2022-08-21T15:57:48;26.10;90.30
3334;DHT22;1679;50.392;8.008;2022-08-21T16:00:20;26.10;89.90
3334;DHT22;1679;50.392;8.008;2022-08-21T16:02:50;26.10;89.30
3334;DHT22;1679;50.392;8.008;2022-08-21T16:05:17;26.10;90.40
3334;DHT22;1679;50.392;8.008;2022-08-21T16:07:44;26.10;89.70
3334;DHT22;1679;50.392;8.008;2022-08-21T16:10:10;26.10;90.00
3334;DHT22;1679;50.392;8.008;2022-08-21T16:12:42;26.00;89.60
3334;DHT22;1679;50.392;8.008;2022-08-21T16:15:12;26.00;90.30
3334;DHT22;1679;50.392;8.008;2022-08-21T16:17:41;26.00;90.10
3334;DHT22;1679;50.392;8.008;2022-08-21T16:20:11;25.90;90.20
3334;DHT22;1679;50.392;8.008;2022-08-21T16:22:37;26.00;90.10
3334;DHT22;1679;50.392;8.008;2022-08-21T16:25:05;25.90;90.10
3334;DHT22;1679;50.392;8.008;2022-08-21T16:27:32;25.90;90.20
3334;DHT22;1679;50.392;8.008;2022-08-21T16:29:58;25.90;90.30
3334;DHT22;1679;50.392;8.008;2022-08-21T16:32:23;25.90;90.70
3334;DHT22;1679;50.392;8.008;2022-08-21T16:34:49;26.00;91.10
3334;DHT22;1679;50.392;8.008;2022-08-21T16:37:16;25.90;90.50
3334;DHT22;1679;50.392;8.008;2022-08-21T16:39:42;25.90;90.40
3334;DHT22;1679;50.392;8.008;2022-08-21T16:42:12;25.90;91.10
3334;DHT22;1679;50.392;8.008;2022-08-21T16:44:40;25.90;90.80
3334;DHT22;1679;50.392;8.008;2022-08-21T16:47:06;25.80;90.90
3334;DHT22;1679;50.392;8.008;2022-08-21T16:49:32;25.80;90.90
3334;DHT22;1679;50.392;8.008;2022-08-21T16:51:58;25.70;91.00
3334;DHT22;1679;50.392;8.008;2022-08-21T16:54:23;25.70;90.90
3334;DHT22;1679;50.392;8.008;2022-08-21T16:56:49;25.70;91.20
3334;DHT22;1679;50.392;8.008;2022-08-21T16:59:16;25.60;91.20
3334;DHT22;1679;50.392;8.008;2022-08-21T17:01:42;25.50;91.40
3334;DHT22;1679;50.392;8.008;2022-08-21T17:04:09;25.50;91.30
3334;DHT22;1679;50.392;8.008;2022-08-21T17:06:34;25.50;91.60
3334;DHT22;1679;50.392;8.008;2022-08-21T17:09:00;25.40;91.80
3334;DHT22;1679;50.392;8.008;2022-08-21T17:11:28;25.40;91.90
3334;DHT22;1679;50.392;8.008;2022-08-21T17:13:55;25.30;91.90
3334;DHT22;1679;50.392;8.008;2022-08-21T17:16:22;25.30;91.90
3334;DHT22;1679;50.392;8.008;2022-08-21T17:18:47;25.20;92.40
3334;DHT22;1679;50.392;8.008;2022-08-21T17:21:14;25.10;92.30
3334;DHT22;1679;50.392;8.008;2022-08-21T17:23:40;25.00;92.70
3334;DHT22;1679;50.392;8.008;2022-08-21T17:26:07;25.00;92.50
3334;DHT22;1679;50.392;8.008;2022-08-21T17:28:34;24.90;92.60